Time;durP1;ratioP1;P1;durP2;ratioP2;P2;SDS_P1;SDS_P2;PMS_P1;PMS_P2;Temp;Humidity;BMP_temperature;BMP_pressure;BME280_temperature;BME280_humidity;BME280_pressure;Samples;Min_cycle;Max_cycle;Signal;HPM_P1;HPM_P2
2022/05/27 00:00:15;;;;;;;3.03;1.60;;;16.10;99.90;;;;;;4966320;28;20798;-75
2022/05/27 00:02:42;;;;;;;1.70;1.60;;;16.00;99.90;;;;;;4989018;28;20482;-75
2022/05/27 00:05:10;;;;;;;2.63;1.83;;;16.00;99.90;;;;;;4980594;28;20484;-75
2022/05/27 00:07:37;;;;;;;1.70;1.60;;;16.00;99.90;;;;;;4991995;28;20458;-74
2022/05/27 00:10:05;;;;;;;2.07;1.43;;;16.00;99.90;;;;;;4992393;28;20888;-75
2022/05/27 00:12:33;;;;;;;1.63;1.53;;;15.90;99.90;;;;;;4987652;28;20486;-75
2022/05/27 00:15:00;;;;;;;1.73;1.63;;;15.90;99.90;;;;;;4988490;28;20573;-75
2022/05/27 00:17:29;;;;;;;1.87;1.77;;;15.90;99.90;;;;;;4988396;28;21027;-75
2022/05/27 00:19:56;;;;;;;2.60;1.70;;;15.80;99.90;;;;;;4991893;28;20480;-75
2022/05/27 00:22:23;;;;;;;3.43;1.80;;;15.80;99.90;;;;;;4988955;28;20460;-74
2022/05/27 00:24:49;;;;;;;2.13;1.93;;;15.70;99.90;;;;;;4990113;28;20462;-75
2022/05/27 00:27:17;;;;;;;2.00;1.70;;;15.70;99.90;;;;;;4990613;28;20459;-75
2022/05/27 00:29:44;;;;;;;2.07;1.63;;;15.70;99.90;;;;;;4990214;28;20486;-75
2022/05/27 00:32:10;;;;;;;2.13;1.90;;;15.60;99.90;;;;;;4990476;28;21003;-75
2022/05/27 00:34:39;;;;;;;2.70;1.70;;;15.50;99.90;;;;;;4987351;28;20461;-75
2022/05/27 00:37:07;;;;;;;1.87;1.77;;;15.50;99.90;;;;;;4990017;28;20468;-75
2022/05/27 00:39:34;;;;;;;2.17;1.77;;;15.40;99.90;;;;;;4986199;28;20455;-75
2022/05/27 00:42:02;;;;;;;2.00;1.80;;;15.30;99.90;;;;;;4988613;28;20463;-75
2022/05/27 00:44:29;;;;;;;2.40;2.20;;;15.30;99.90;;;;;;4990430;28;20577;-75
2022/05/27 00:47:00;;;;;;;3.43;2.80;;;15.20;99.90;;;;;;4990061;28;20496;-75
2022/05/27 00:49:28;;;;;;;1.70;1.60;;;15.20;99.90;;;;;;4987961;28;20458;-74
2022/05/27 00:52:03;;;;;;;2.20;1.90;;;15.20;99.90;;;;;;4993661;28;20937;-75
2022/05/27 00:54:30;;;;;;;2.17;1.97;;;15.10;99.90;;;;;;4986181;28;20462;-75
2022/05/27 00:57:01;;;;;;;2.10;1.90;;;15.10;99.90;;;;;;4985438;28;20536;-75
2022/05/27 00:59:34;;;;;;;2.40;2.20;;;15.10;99.90;;;;;;4987334;28;20954;-75
2022/05/27 01:02:01;;;;;;;2.33;1.80;;;15.20;99.90;;;;;;4986326;28;20471;-75
2022/05/27 01:04:29;;;;;;;2.43;1.90;;;15.20;99.90;;;;;;4977728;28;20462;-75
2022/05/27 01:06:57;;;;;;;3.00;2.30;;;15.20;99.90;;;;;;4983653;28;20453;-75
2022/05/27 01:09:25;;;;;;;2.40;2.20;;;15.20;99.90;;;;;;4985263;28;20969;-75
2022/05/27 01:12:15;;;;;;;3.17;2.20;;;15.20;99.90;;;;;;4990639;28;20458;-75
2022/05/27 01:14:55;;;;;;;2.70;2.13;;;15.10;99.90;;;;;;4975256;28;21016;-75
2022/05/27 01:17:34;;;;;;;3.23;1.90;;;15.10;99.90;;;;;;4984144;28;20456;-75
2022/05/27 01:20:19;;;;;;;1.80;1.70;;;15.10;99.90;;;;;;4984095;28;20578;-75
2022/05/27 01:23:41;;;;;;;1.97;1.80;;;15.10;99.90;;;;;;4988551;28;20477;-75
2022/05/27 01:26:42;;;;;;;2.13;1.90;;;15.00;99.90;;;;;;4986564;28;20461;-75
2022/05/27 01:29:39;;;;;;;2.20;2.00;;;15.00;99.90;;;;;;4985533;28;20460;-75
2022/05/27 01:32:14;;;;;;;2.20;2.00;;;15.10;99.90;;;;;;4966467;28;20458;-75
2022/05/27 01:34:52;;;;;;;3.20;1.93;;;15.00;99.90;;;;;;4988093;28;20455;-75
2022/05/27 01:37:27;;;;;;;2.40;2.20;;;15.00;99.90;;;;;;4982381;28;20589;-74
2022/05/27 01:40:03;;;;;;;2.10;1.90;;;15.00;99.90;;;;;;4985256;28;20456;-74
2022/05/27 01:42:38;;;;;;;2.50;2.03;;;15.00;99.90;;;;;;4989762;28;20477;-75
2022/05/27 01:45:10;;;;;;;2.20;1.80;;;15.00;99.90;;;;;;4981960;28;20454;-75
2022/05/27 01:47:41;;;;;;;2.70;2.20;;;14.90;99.90;;;;;;4988572;28;20509;-75
2022/05/27 01:50:12;;;;;;;2.30;2.10;;;14.90;99.90;;;;;;4988580;28;20478;-75
2022/05/27 01:52:47;;;;;;;2.20;2.00;;;14.90;99.90;;;;;;4979605;28;20490;-75
2022/05/27 01:55:18;;;;;;;2.93;2.00;;;14.90;99.90;;;;;;4978125;28;20869;-74
2022/05/27 01:57:49;;;;;;;2.87;2.27;;;14.80;99.90;;;;;;4984535;28;20473;-75
2022/05/27 02:00:21;;;;;;;3.20;2.40;;;14.80;99.90;;;;;;4980652;28;20463;-75
2022/05/27 02:02:55;;;;;;;2.80;2.60;;;14.80;99.90;;;;;;4982362;28;20565;-75
2022/05/27 02:05:26;;;;;;;2.50;2.00;;;14.70;99.90;;;;;;4984731;28;20564;-75
2022/05/27 02:07:57;;;;;;;2.60;2.30;;;14.60;99.90;;;;;;4989975;28;20464;-75
2022/05/27 02:10:29;;;;;;;2.30;2.10;;;14.60;99.90;;;;;;4990599;28;20482;-75
2022/05/27 02:13:01;;;;;;;2.30;1.97;;;14.70;99.90;;;;;;4986014;28;20487;-74
2022/05/27 02:15:32;;;;;;;1.93;1.73;;;14.70;99.90;;;;;;4993171;28;20462;-74
2022/05/27 02:18:05;;;;;;;2.13;2.03;;;14.70;99.90;;;;;;4993608;28;20501;-74
2022/05/27 02:20:40;;;;;;;2.13;2.03;;;14.70;99.90;;;;;;4989859;28;20454;-74
2022/05/27 02:23:19;;;;;;;2.40;2.10;;;14.70;99.90;;;;;;4987688;28;20558;-74
2022/05/27 02:25:47;;;;;;;3.57;2.60;;;14.70;99.90;;;;;;4980517;28;20454;-74
2022/05/27 02:28:18;;;;;;;2.50;1.93;;;14.60;99.90;;;;;;4991674;28;20501;-74
2022/05/27 02:30:49;;;;;;;2.43;2.23;;;14.60;99.90;;;;;;4994400;28;20492;-74
2022/05/27 02:36:24;;;;;;;2.63;2.37;;;14.50;99.90;;;;;;4965859;28;20472;-74
2022/05/27 02:38:52;;;;;;;3.97;2.80;;;14.50;99.90;;;;;;4989507;28;21043;-74
2022/05/27 02:41:39;;;;;;;2.60;2.30;;;14.50;99.90;;;;;;4983382;28;21062;-74
2022/05/27 02:44:17;;;;;;;3.43;2.10;;;14.50;99.90;;;;;;4983041;28;20826;-75
2022/05/27 02:46:51;;;;;;;3.07;2.70;;;14.50;99.90;;;;;;4987550;28;20812;-75
2022/05/27 02:49:28;;;;;;;2.70;2.27;;;14.50;99.90;;;;;;4982775;28;20456;-74
2022/05/27 02:52:03;;;;;;;2.50;2.30;;;14.50;99.90;;;;;;4987916;28;20547;-75
2022/05/27 02:54:36;;;;;;;2.70;2.50;;;14.60;99.90;;;;;;4978711;28;20644;-75
2022/05/27 02:57:09;;;;;;;4.33;2.60;;;14.60;99.90;;;;;;4985350;28;20549;-74
2022/05/27 02:59:38;;;;;;;2.60;2.40;;;14.70;99.90;;;;;;4974832;28;21070;-75
2022/05/27 03:02:07;;;;;;;2.57;2.37;;;14.70;99.90;;;;;;4989413;28;20597;-75
2022/05/27 03:04:36;;;;;;;4.27;2.60;;;14.80;99.90;;;;;;4985619;28;21198;-75
2022/05/27 03:07:14;;;;;;;2.80;2.20;;;14.90;99.90;;;;;;4988755;28;20458;-75
2022/05/27 03:09:50;;;;;;;2.93;2.43;;;14.90;99.90;;;;;;4985125;28;20532;-75
2022/05/27 03:12:29;;;;;;;2.97;2.10;;;14.90;99.90;;;;;;4978641;28;21005;-74
2022/05/27 03:15:21;;;;;;;2.40;2.20;;;15.00;99.90;;;;;;4986233;28;21024;-74
2022/05/27 03:18:04;;;;;;;2.60;2.17;;;14.90;99.90;;;;;;4987617;28;20458;-75
2022/05/27 03:20:44;;;;;;;4.53;2.67;;;15.00;99.90;;;;;;4982357;28;20466;-74
2022/05/27 03:23:31;;;;;;;2.87;2.47;;;15.00;99.90;;;;;;4985210;28;21007;-75
2022/05/27 03:26:04;;;;;;;2.47;2.20;;;15.00;99.90;;;;;;4987392;28;20533;-74
2022/05/27 03:28:39;;;;;;;2.87;2.57;;;15.00;99.90;;;;;;4987274;28;20466;-75
2022/05/27 03:31:13;;;;;;;3.00;2.30;;;15.10;99.90;;;;;;4981688;28;20951;-75
2022/05/27 03:33:50;;;;;;;6.37;2.60;;;15.10;99.90;;;;;;4988389;28;20477;-75
2022/05/27 03:36:23;;;;;;;2.60;2.40;;;15.10;99.90;;;;;;4980590;28;20455;-75
2022/05/27 03:38:55;;;;;;;2.70;2.50;;;15.10;99.90;;;;;;4986632;28;20886;-75
2022/05/27 03:41:27;;;;;;;3.30;2.80;;;15.10;99.90;;;;;;4981688;28;20469;-75
2022/05/27 03:43:55;;;;;;;4.10;2.90;;;15.10;99.90;;;;;;4992917;28;21113;-75
2022/05/27 03:46:31;;;;;;;3.30;3.10;;;15.10;99.90;;;;;;4987318;28;20455;-75
2022/05/27 03:48:58;;;;;;;4.17;3.30;;;15.00;99.90;;;;;;4992463;28;20572;-75
2022/05/27 03:51:30;;;;;;;3.33;2.90;;;14.90;99.90;;;;;;4991574;28;20841;-75
2022/05/27 03:54:06;;;;;;;5.20;3.00;;;14.90;99.90;;;;;;4990455;28;20468;-74
2022/05/27 03:56:34;;;;;;;2.97;2.67;;;14.80;99.90;;;;;;4989122;28;20457;-75
2022/05/27 03:59:01;;;;;;;3.00;2.73;;;14.80;99.90;;;;;;4986587;28;20469;-75
2022/05/27 04:01:30;;;;;;;7.63;3.37;;;14.70;99.90;;;;;;4990121;28;20476;-75
2022/05/27 04:03:57;;;;;;;3.80;3.33;;;14.70;99.90;;;;;;4989022;28;20971;-74
2022/05/27 04:06:26;;;;;;;3.10;2.90;;;14.70;99.90;;;;;;4985909;28;20467;-75
2022/05/27 04:08:53;;;;;;;3.57;3.27;;;14.70;99.90;;;;;;4992324;28;20470;-75
2022/05/27 04:11:20;;;;;;;3.10;2.80;;;14.60;99.90;;;;;;4989289;28;20573;-75
2022/05/27 04:13:47;;;;;;;3.77;3.47;;;14.60;99.90;;;;;;4991191;28;20486;-75
2022/05/27 04:16:14;;;;;;;3.97;3.67;;;14.60;99.90;;;;;;4988235;28;20480;-75
2022/05/27 04:18:42;;;;;;;3.53;3.20;;;14.50;99.90;;;;;;4988875;28;20949;-75
2022/05/27 04:21:09;;;;;;;3.73;3.43;;;14.50;99.90;;;;;;4983660;28;20470;-75
2022/05/27 04:23:37;;;;;;;3.27;2.97;;;14.40;99.90;;;;;;4990599;28;20560;-75
2022/05/27 04:26:05;;;;;;;3.88;3.28;;;14.40;99.90;;;;;;4982249;28;20465;-75
2022/05/27 04:28:33;;;;;;;4.00;3.60;;;14.40;99.90;;;;;;4988781;28;20965;-75
2022/05/27 04:31:01;;;;;;;3.33;3.00;;;14.40;99.90;;;;;;4985849;28;20505;-75
2022/05/27 04:33:28;;;;;;;3.23;2.93;;;14.40;99.90;;;;;;4989642;28;20565;-75
2022/05/27 04:35:56;;;;;;;3.27;2.93;;;14.40;99.90;;;;;;4991516;28;20480;-75
2022/05/27 04:38:23;;;;;;;4.00;2.60;;;14.50;99.90;;;;;;4990272;28;20464;-75
2022/05/27 04:40:52;;;;;;;2.80;2.60;;;14.50;99.90;;;;;;4987404;28;20472;-74
2022/05/27 04:43:19;;;;;;;2.67;2.27;;;14.50;99.90;;;;;;4986775;28;21084;-75
2022/05/27 04:45:47;;;;;;;4.23;2.77;;;14.50;99.90;;;;;;4976900;28;20810;-75
2022/05/27 04:48:14;;;;;;;2.97;2.70;;;14.40;99.90;;;;;;4986866;28;20802;-75
2022/05/27 04:50:41;;;;;;;4.17;2.87;;;14.50;99.90;;;;;;4987992;28;20969;-74
2022/05/27 04:53:09;;;;;;;3.33;2.60;;;14.50;99.90;;;;;;4987844;28;20482;-74
2022/05/27 04:55:38;;;;;;;2.90;2.63;;;14.50;99.90;;;;;;4981113;28;20451;-75
2022/05/27 04:58:07;;;;;;;2.93;2.63;;;14.60;99.90;;;;;;4982368;28;20470;-74
2022/05/27 05:00:37;;;;;;;4.47;3.37;;;14.70;99.90;;;;;;5002389;28;20531;-75
2022/05/27 05:03:04;;;;;;;3.37;2.90;;;14.80;99.90;;;;;;4983940;28;20477;-77
2022/05/27 05:05:33;;;;;;;2.97;2.77;;;14.90;99.90;;;;;;4986146;28;20535;-75
2022/05/27 05:08:04;;;;;;;3.77;2.63;;;15.00;99.90;;;;;;4985917;28;20966;-75
2022/05/27 05:10:31;;;;;;;3.23;2.93;;;15.10;99.90;;;;;;4987591;28;20605;-75
2022/05/27 05:12:59;;;;;;;3.50;3.20;;;15.20;99.90;;;;;;4990189;28;20490;-75
2022/05/27 05:15:28;;;;;;;3.27;2.97;;;15.20;99.90;;;;;;4987108;28;20458;-76
2022/05/27 05:17:56;;;;;;;2.87;2.60;;;15.30;99.90;;;;;;4985462;28;20545;-75
2022/05/27 05:20:26;;;;;;;3.20;3.00;;;15.30;99.90;;;;;;4992733;28;20465;-74
2022/05/27 05:22:53;;;;;;;2.67;2.47;;;15.30;99.90;;;;;;4989624;28;20507;-77
2022/05/27 05:25:21;;;;;;;6.30;3.20;;;15.40;99.90;;;;;;4987625;28;20453;-75
2022/05/27 05:27:48;;;;;;;6.10;3.30;;;15.40;99.90;;;;;;4989779;28;20964;-75
2022/05/27 05:30:17;;;;;;;3.90;2.80;;;15.40;99.90;;;;;;4991570;28;20465;-75
2022/05/27 05:32:46;;;;;;;3.60;3.30;;;15.40;99.90;;;;;;4990473;28;20524;-75
2022/05/27 05:35:15;;;;;;;3.70;3.33;;;15.50;99.90;;;;;;4990325;28;20474;-78
2022/05/27 05:37:42;;;;;;;3.60;3.30;;;15.50;99.90;;;;;;4982746;28;20462;-76
2022/05/27 05:40:11;;;;;;;3.90;3.37;;;15.50;99.90;;;;;;4989182;28;20465;-76
2022/05/27 05:42:39;;;;;;;6.07;3.53;;;15.40;99.90;;;;;;4990101;28;20486;-75
2022/05/27 05:45:07;;;;;;;3.90;3.20;;;15.40;99.90;;;;;;4995457;28;20462;-79
2022/05/27 05:47:34;;;;;;;6.33;3.80;;;15.40;99.90;;;;;;4987896;28;20450;-78
2022/05/27 05:50:02;;;;;;;5.20;4.13;;;15.40;99.90;;;;;;4988907;28;20514;-78
2022/05/27 05:52:30;;;;;;;5.17;3.37;;;15.30;99.90;;;;;;4990240;28;20497;-76
2022/05/27 05:54:57;;;;;;;4.00;3.60;;;15.40;99.90;;;;;;4987439;28;20467;-91
2022/05/27 05:57:26;;;;;;;4.40;3.83;;;15.40;99.90;;;;;;4990937;28;20465;-75
2022/05/27 05:59:55;;;;;;;5.77;3.97;;;15.50;99.90;;;;;;4981188;28;20462;-75
2022/05/27 06:02:22;;;;;;;4.10;3.80;;;15.50;99.90;;;;;;4983335;28;20549;-73
2022/05/27 06:04:49;;;;;;;4.60;4.20;;;15.60;99.90;;;;;;4981733;28;20455;-73
2022/05/27 06:07:18;;;;;;;4.30;3.77;;;15.60;99.90;;;;;;4980817;28;20458;-73
2022/05/27 06:09:45;;;;;;;4.00;3.60;;;15.60;99.90;;;;;;4969802;28;20854;-73
2022/05/27 06:12:15;;;;;;;5.10;4.37;;;15.60;99.90;;;;;;4987221;28;20853;-76
2022/05/27 06:14:42;;;;;;;4.23;3.90;;;15.60;99.90;;;;;;4980274;28;20546;-75
2022/05/27 06:17:09;;;;;;;4.37;3.83;;;15.60;99.90;;;;;;4985304;28;20458;-75
2022/05/27 06:19:36;;;;;;;5.17;4.20;;;15.60;99.90;;;;;;4985297;28;20462;-73
2022/05/27 06:22:03;;;;;;;6.13;4.40;;;15.70;99.90;;;;;;4985253;28;20497;-73
2022/05/27 06:24:33;;;;;;;4.50;3.70;;;15.70;99.90;;;;;;4988984;28;20458;-75
2022/05/27 06:27:01;;;;;;;4.20;3.80;;;15.80;99.90;;;;;;4985392;28;20454;-76
2022/05/27 06:34:57;;;;;;;4.40;3.97;;;15.80;99.90;;;;;;4981606;28;20470;-75
2022/05/27 06:37:24;;;;;;;4.00;3.70;;;15.70;99.90;;;;;;4982179;28;20525;-76
2022/05/27 06:39:53;;;;;;;4.67;3.53;;;15.70;99.90;;;;;;4984481;28;20539;-75
2022/05/27 06:42:20;;;;;;;4.20;3.80;;;15.70;99.90;;;;;;4991548;28;21329;-75
2022/05/27 06:44:47;;;;;;;4.23;3.40;;;15.60;99.90;;;;;;4989662;28;20537;-75
2022/05/27 06:47:14;;;;;;;4.33;3.50;;;15.50;99.90;;;;;;4990982;28;20469;-75
2022/05/27 06:49:43;;;;;;;4.13;3.67;;;15.60;99.90;;;;;;4984591;28;20455;-75
2022/05/27 06:52:13;;;;;;;4.83;3.60;;;15.60;99.90;;;;;;4973968;28;20499;-75
2022/05/27 06:54:41;;;;;;;4.53;3.60;;;15.60;99.90;;;;;;4980379;28;20540;-75
2022/05/27 06:57:11;;;;;;;3.93;3.63;;;15.60;99.90;;;;;;4987919;28;20975;-75
2022/05/27 06:59:38;;;;;;;4.00;3.50;;;15.50;99.90;;;;;;4989198;28;20462;-75
2022/05/27 07:02:06;;;;;;;4.90;3.77;;;15.60;99.90;;;;;;4989207;28;20565;-75
2022/05/27 07:04:33;;;;;;;4.50;3.80;;;15.60;99.90;;;;;;4984888;28;20461;-75
2022/05/27 07:07:00;;;;;;;3.57;3.27;;;15.50;99.90;;;;;;4982408;28;20488;-75
2022/05/27 07:09:27;;;;;;;4.60;3.90;;;15.50;99.90;;;;;;4987512;28;20815;-75
2022/05/27 07:11:56;;;;;;;3.40;3.10;;;15.50;99.90;;;;;;4983256;28;20492;-75
2022/05/27 07:14:24;;;;;;;5.10;3.53;;;15.50;99.90;;;;;;4983639;28;20593;-75
2022/05/27 07:16:52;;;;;;;3.47;3.10;;;15.50;99.90;;;;;;4987183;28;20482;-74
2022/05/27 07:19:20;;;;;;;4.70;3.20;;;15.40;99.90;;;;;;4992816;28;20454;-75
2022/05/27 07:21:49;;;;;;;5.47;3.57;;;15.40;99.90;;;;;;4988483;28;20486;-75
2022/05/27 07:24:18;;;;;;;4.27;2.97;;;15.40;99.90;;;;;;4989957;28;20992;-75
2022/05/27 07:26:46;;;;;;;3.00;2.80;;;15.40;99.90;;;;;;4991190;28;20538;-75
2022/05/27 07:29:13;;;;;;;4.23;3.10;;;15.40;99.90;;;;;;4991385;28;20488;-75
2022/05/27 07:31:44;;;;;;;3.33;2.87;;;15.40;99.90;;;;;;4988904;28;20490;-75
2022/05/27 07:34:12;;;;;;;5.63;3.00;;;15.40;99.90;;;;;;4984072;28;20917;-75
2022/05/27 07:36:39;;;;;;;6.80;3.23;;;15.50;99.90;;;;;;4988402;28;20790;-75
2022/05/27 07:39:06;;;;;;;3.87;3.03;;;15.50;99.90;;;;;;4984592;28;20458;-75
2022/05/27 07:41:33;;;;;;;3.67;3.10;;;15.60;99.90;;;;;;4983758;28;20487;-75
2022/05/27 07:44:01;;;;;;;4.67;2.90;;;15.60;99.90;;;;;;4980091;28;20551;-75
2022/05/27 07:46:30;;;;;;;4.13;2.97;;;15.60;99.90;;;;;;4983219;28;20461;-75
2022/05/27 07:48:58;;;;;;;3.53;3.23;;;15.60;99.90;;;;;;4988043;28;20808;-72
2022/05/27 07:51:26;;;;;;;3.53;2.90;;;15.50;99.90;;;;;;4987965;28;20477;-74
2022/05/27 07:53:53;;;;;;;2.90;2.70;;;15.50;99.90;;;;;;4985193;28;20494;-74
2022/05/27 07:56:20;;;;;;;3.80;3.30;;;15.60;99.90;;;;;;4989984;28;20529;-74
2022/05/27 07:58:47;;;;;;;5.70;3.57;;;15.60;99.90;;;;;;4981046;28;20501;-73
2022/05/27 08:01:15;;;;;;;4.83;3.47;;;15.70;99.90;;;;;;4985637;28;20564;-74
2022/05/27 08:03:42;;;;;;;3.13;2.93;;;15.80;99.90;;;;;;4986988;28;20817;-74
2022/05/27 08:06:11;;;;;;;4.30;3.10;;;15.80;99.90;;;;;;4988183;28;20510;-74
2022/05/27 08:08:38;;;;;;;3.90;3.60;;;15.80;99.90;;;;;;4985761;28;20465;-74
2022/05/27 08:11:06;;;;;;;4.07;3.77;;;15.80;99.90;;;;;;4988085;28;20480;-74
2022/05/27 08:13:35;;;;;;;4.00;3.60;;;15.80;99.90;;;;;;4988682;28;20478;-74
2022/05/27 08:16:02;;;;;;;3.43;3.23;;;15.80;99.90;;;;;;4979089;28;20484;-76
2022/05/27 08:18:29;;;;;;;5.17;3.60;;;15.80;99.90;;;;;;4987102;28;20454;-75
2022/05/27 08:20:56;;;;;;;3.70;3.40;;;15.90;99.90;;;;;;4986921;28;20474;-74
2022/05/27 08:23:25;;;;;;;4.03;3.50;;;15.90;99.90;;;;;;4991931;28;20948;-74
2022/05/27 08:25:55;;;;;;;3.10;2.80;;;16.00;99.90;;;;;;4989486;28;20466;-74
2022/05/27 08:28:24;;;;;;;3.70;3.20;;;16.10;99.90;;;;;;4993462;28;20482;-74
2022/05/27 08:30:55;;;;;;;4.50;3.37;;;16.20;99.90;;;;;;4993767;28;20515;-75
2022/05/27 08:33:24;;;;;;;3.83;3.10;;;16.20;99.90;;;;;;4995610;28;20533;-75
2022/05/27 08:38:40;;;;;;;3.53;3.27;;;16.30;99.90;;;;;;4988327;28;21102;-75
2022/05/27 08:41:28;;;;;;;3.60;3.30;;;16.50;99.90;;;;;;4995206;28;20475;-74
2022/05/27 08:44:08;;;;;;;3.50;3.20;;;16.70;99.90;;;;;;4991332;28;20458;-74
2022/05/27 08:46:45;;;;;;;3.47;3.27;;;16.90;99.90;;;;;;4985165;28;20516;-74
2022/05/27 08:49:16;;;;;;;4.40;3.03;;;17.00;99.90;;;;;;4990816;28;20454;-74
2022/05/27 08:51:49;;;;;;;4.47;3.43;;;16.80;99.90;;;;;;4990210;28;20488;-75
2022/05/27 08:54:23;;;;;;;5.53;3.63;;;16.60;99.90;;;;;;4990964;28;20489;-76
2022/05/27 08:59:52;;;;;;;3.97;3.67;;;16.40;99.90;;;;;;4987976;28;20544;-75
2022/05/27 09:02:26;;;;;;;5.27;4.87;;;16.40;99.90;;;;;;4988853;28;20578;-75
2022/05/27 09:05:01;;;;;;;5.70;5.20;;;16.50;99.90;;;;;;4990856;28;20880;-75
2022/05/27 09:07:37;;;;;;;5.90;5.40;;;16.70;99.90;;;;;;4986764;28;20459;-75
2022/05/27 09:10:09;;;;;;;3.63;3.30;;;16.90;99.90;;;;;;4982814;28;20816;-74
2022/05/27 09:12:45;;;;;;;3.67;3.27;;;17.00;99.90;;;;;;4992300;28;20489;-75
2022/05/27 09:15:42;;;;;;;3.50;3.20;;;17.10;99.90;;;;;;4987490;28;20557;-75
2022/05/27 09:18:18;;;;;;;3.27;2.97;;;17.40;99.90;;;;;;4968171;28;20520;-75
2022/05/27 09:20:50;;;;;;;3.10;2.83;;;17.50;99.90;;;;;;4990121;28;20484;-75
2022/05/27 09:23:57;;;;;;;3.10;2.70;;;17.60;99.90;;;;;;4984740;28;20483;-75
2022/05/27 09:26:33;;;;;;;2.97;2.77;;;17.60;99.90;;;;;;4971725;28;20526;-75
2022/05/27 09:29:06;;;;;;;3.07;2.80;;;17.50;99.90;;;;;;4988588;28;20521;-74
2022/05/27 09:31:38;;;;;;;3.43;3.13;;;17.50;99.90;;;;;;4987075;28;20475;-75
2022/05/27 09:34:09;;;;;;;4.17;3.60;;;17.30;99.90;;;;;;4986795;28;20484;-75
2022/05/27 09:36:39;;;;;;;4.10;3.73;;;17.20;99.90;;;;;;4985326;28;20457;-75
2022/05/27 09:39:10;;;;;;;2.67;2.40;;;17.10;99.90;;;;;;4979697;28;20537;-75
2022/05/27 09:41:45;;;;;;;3.00;2.70;;;17.10;99.90;;;;;;4977736;28;20476;-75
2022/05/27 09:44:22;;;;;;;3.03;2.63;;;17.10;99.90;;;;;;4979372;28;20463;-75
2022/05/27 09:46:50;;;;;;;2.57;2.37;;;17.10;99.90;;;;;;4992134;28;20459;-75
2022/05/27 09:49:17;;;;;;;2.70;2.50;;;17.20;99.90;;;;;;4988264;28;20465;-75
2022/05/27 09:51:44;;;;;;;4.90;3.10;;;17.40;99.90;;;;;;4984463;28;20516;-76
2022/05/27 09:54:25;;;;;;;2.90;2.70;;;17.40;99.90;;;;;;4992967;28;20495;-76
2022/05/27 09:57:03;;;;;;;3.37;3.07;;;17.60;99.90;;;;;;4985163;28;20468;-76
2022/05/27 09:59:36;;;;;;;4.60;2.83;;;17.80;99.90;;;;;;4990374;28;20563;-75
2022/05/27 10:02:32;;;;;;;3.87;2.90;;;17.80;99.90;;;;;;4986216;28;20478;-76
2022/05/27 10:05:01;;;;;;;2.70;2.50;;;17.90;99.90;;;;;;4938774;28;20471;-76
2022/05/27 10:07:35;;;;;;;2.90;2.67;;;18.10;99.90;;;;;;4985939;28;20490;-76
2022/05/27 10:10:24;;;;;;;2.60;2.40;;;18.20;99.90;;;;;;4981217;28;20473;-75
2022/05/27 10:12:53;;;;;;;2.73;2.53;;;18.20;99.90;;;;;;4984676;28;20551;-76
2022/05/27 10:15:30;;;;;;;2.63;2.40;;;18.20;99.90;;;;;;4983815;28;20465;-76
2022/05/27 10:18:13;;;;;;;2.50;2.30;;;18.30;99.90;;;;;;4979774;28;20468;-75
2022/05/27 10:20:42;;;;;;;2.93;2.73;;;18.30;99.90;;;;;;4985657;28;20480;-76
2022/05/27 10:23:11;;;;;;;2.50;2.30;;;18.60;99.90;;;;;;4986958;28;20665;-75
2022/05/27 10:25:40;;;;;;;3.10;2.47;;;18.80;99.90;;;;;;4982426;28;20948;-89
2022/05/27 10:28:11;;;;;;;2.33;2.13;;;19.50;99.90;;;;;;4988151;28;20462;-87
2022/05/27 10:30:41;;;;;;;3.27;2.33;;;20.40;99.90;;;;;;4987069;28;20502;-80
2022/05/27 10:33:20;;;;;;;2.13;1.90;;;20.80;99.90;;;;;;4986208;28;20567;-75
2022/05/27 10:35:48;;;;;;;2.37;2.17;;;20.40;99.90;;;;;;4988135;28;20473;-75
2022/05/27 10:38:39;;;;;;;2.60;2.40;;;19.60;99.90;;;;;;4982223;28;20481;-75
2022/05/27 10:41:16;;;;;;;2.40;2.20;;;19.00;99.90;;;;;;4984853;28;20516;-76
2022/05/27 10:44:11;;;;;;;2.80;2.27;;;18.80;99.90;;;;;;4986678;28;20489;-74
2022/05/27 10:46:49;;;;;;;2.60;2.40;;;18.50;99.90;;;;;;4984558;28;20472;-73
2022/05/27 10:49:50;;;;;;;2.50;2.30;;;18.50;99.90;;;;;;4984800;28;20465;-72
2022/05/27 10:52:37;;;;;;;4.17;2.70;;;18.60;99.90;;;;;;4983176;28;20501;-74
2022/05/27 10:55:14;;;;;;;3.87;2.90;;;18.80;99.90;;;;;;4988664;28;20537;-74
2022/05/27 11:04:08;;;;;;;3.90;2.87;;;19.30;99.90;;;;;;4992442;28;20461;-76
2022/05/27 11:07:06;;;;;;;3.27;2.93;;;19.40;99.90;;;;;;4984973;28;20461;-77
2022/05/27 11:09:44;;;;;;;4.90;3.00;;;19.40;99.90;;;;;;4989133;28;20462;-76
2022/05/27 11:12:20;;;;;;;2.30;2.10;;;19.30;99.90;;;;;;4992562;28;20481;-77
2022/05/27 11:15:11;;;;;;;4.10;2.90;;;19.60;99.90;;;;;;4985160;28;20484;-74
2022/05/27 11:17:50;;;;;;;3.87;3.47;;;20.00;99.90;;;;;;4990015;28;20473;-73
2022/05/27 11:20:48;;;;;;;2.83;2.53;;;20.70;99.90;;;;;;4991091;28;20473;-71
2022/05/27 11:23:39;;;;;;;1.80;1.70;;;21.10;99.90;;;;;;4979417;28;20453;-71
2022/05/27 11:26:13;;;;;;;2.53;2.27;;;21.70;99.90;;;;;;4984965;28;20466;-72
2022/05/27 11:29:17;;;;;;;2.63;2.00;;;21.60;99.90;;;;;;4990494;28;20939;-84
2022/05/27 11:31:54;;;;;;;2.40;2.20;;;21.30;99.90;;;;;;4983228;28;20478;-76
2022/05/27 11:34:27;;;;;;;2.10;1.70;;;21.10;99.90;;;;;;4988014;28;20513;-74
2022/05/27 11:37:32;;;;;;;2.40;2.13;;;21.00;99.90;;;;;;4989353;28;20536;-78
2022/05/27 11:40:19;;;;;;;2.93;2.63;;;20.90;99.90;;;;;;4949121;28;20465;-76
2022/05/27 11:43:15;;;;;;;3.90;1.90;;;20.80;99.90;;;;;;4992564;28;20458;-76
2022/05/27 11:45:52;;;;;;;2.40;2.20;;;20.80;99.90;;;;;;4983189;28;20467;-77
2022/05/27 11:48:29;;;;;;;2.50;2.10;;;20.70;99.90;;;;;;4990004;28;20552;-76
2022/05/27 11:51:12;;;;;;;4.60;2.90;;;20.20;99.90;;;;;;4990974;28;20560;-76
2022/05/27 11:53:51;;;;;;;3.53;1.77;;;20.20;99.90;;;;;;4987158;28;20489;-75
2022/05/27 11:56:26;;;;;;;3.57;1.73;;;20.80;99.90;;;;;;4987956;28;20458;-74
2022/05/27 11:59:00;;;;;;;3.70;3.00;;;21.50;99.90;;;;;;4987122;28;20961;-74
2022/05/27 12:01:36;;;;;;;2.10;1.97;;;22.20;99.90;;;;;;4991090;28;20480;-74
2022/05/27 12:04:12;;;;;;;3.00;2.50;;;22.70;99.90;;;;;;4988375;28;20461;-74
2022/05/27 12:06:50;;;;;;;2.77;1.50;;;22.70;99.90;;;;;;4987168;28;20461;-74
2022/05/27 12:09:24;;;;;;;5.03;2.23;;;22.40;99.60;;;;;;4989846;28;20461;-73
2022/05/27 12:11:54;;;;;;;3.13;2.63;;;22.40;99.80;;;;;;4986643;28;21101;-74
2022/05/27 12:14:30;;;;;;;2.93;2.13;;;22.70;99.20;;;;;;4987765;28;20486;-74
2022/05/27 12:16:59;;;;;;;1.70;1.60;;;23.10;98.20;;;;;;4988682;28;20454;-74
2022/05/27 12:19:30;;;;;;;2.10;1.83;;;23.10;98.20;;;;;;4986937;28;20461;-74
2022/05/27 12:22:07;;;;;;;2.27;1.40;;;23.30;98.00;;;;;;4984464;28;20512;-74
2022/05/27 12:24:37;;;;;;;1.80;1.70;;;23.10;98.40;;;;;;4982462;28;20457;-74
2022/05/27 12:27:06;;;;;;;1.70;1.60;;;23.00;98.30;;;;;;4987223;28;20618;-74
2022/05/27 12:29:36;;;;;;;3.50;1.50;;;23.00;98.20;;;;;;4990621;28;20470;-74
2022/05/27 12:32:08;;;;;;;4.83;1.80;;;22.90;97.40;;;;;;4983910;28;20549;-74
2022/05/27 12:34:38;;;;;;;2.60;2.20;;;22.80;97.70;;;;;;4982157;28;20492;-74
2022/05/27 12:37:19;;;;;;;2.00;1.77;;;23.30;98.00;;;;;;4989615;28;20520;-74
2022/05/27 12:39:49;;;;;;;1.37;1.27;;;23.50;96.70;;;;;;4985452;28;20462;-72
2022/05/27 12:42:20;;;;;;;1.60;1.40;;;23.70;95.60;;;;;;4988973;28;20469;-76
2022/05/27 12:44:48;;;;;;;1.50;1.40;;;23.50;95.80;;;;;;4988651;28;20465;-77
2022/05/27 12:47:19;;;;;;;1.80;1.70;;;23.40;96.00;;;;;;4982093;28;20786;-77
2022/05/27 12:49:49;;;;;;;1.80;1.50;;;23.20;96.20;;;;;;4984771;28;20701;-76
2022/05/27 12:52:52;;;;;;;1.67;1.57;;;23.30;96.20;;;;;;4980920;28;20546;-76
2022/05/27 13:01:24;;;;;;;1.90;1.70;;;23.60;96.50;;;;;;4988681;28;20950;-76
2022/05/27 13:03:53;;;;;;;2.20;1.70;;;23.80;95.80;;;;;;4977840;28;20462;-77
2022/05/27 13:07:03;;;;;;;2.00;1.80;;;23.80;95.60;;;;;;4977692;28;20464;-76
2022/05/27 13:09:37;;;;;;;3.43;1.70;;;23.70;95.70;;;;;;4984265;28;20465;-76
2022/05/27 13:12:05;;;;;;;2.27;2.10;;;23.60;95.40;;;;;;4985406;28;20540;-76
2022/05/27 13:14:46;;;;;;;2.20;2.00;;;23.30;95.50;;;;;;4988950;28;20489;-76
2022/05/27 13:17:30;;;;;;;2.00;1.53;;;23.50;95.60;;;;;;4975466;28;20462;-76
2022/05/27 13:20:07;;;;;;;1.80;1.70;;;23.40;95.30;;;;;;4989684;28;20481;-76
2022/05/27 13:22:36;;;;;;;1.73;1.63;;;23.00;95.40;;;;;;4987753;28;20468;-76
2022/05/27 13:25:26;;;;;;;2.87;1.70;;;22.60;95.90;;;;;;4988369;28;20480;-76
2022/05/27 13:27:59;;;;;;;1.70;1.60;;;22.50;96.40;;;;;;4974474;28;20485;-76
2022/05/27 13:30:57;;;;;;;1.93;1.63;;;22.40;96.40;;;;;;4984500;28;20822;-76
2022/05/27 13:33:28;;;;;;;2.80;1.90;;;22.30;96.40;;;;;;4983062;28;20485;-76
2022/05/27 13:35:56;;;;;;;2.47;1.60;;;22.10;96.90;;;;;;4985548;28;20561;-75
2022/05/27 13:38:28;;;;;;;1.70;1.60;;;22.20;97.10;;;;;;4982564;28;20834;-77
2022/05/27 13:40:58;;;;;;;3.37;2.00;;;22.50;97.20;;;;;;4985014;28;20474;-76
2022/05/27 13:43:33;;;;;;;2.80;1.80;;;23.20;96.30;;;;;;4988988;28;20454;-76